Time;durP1;ratioP1;P1;durP2;ratioP2;P2;SDS_P1;SDS_P2;PMS_P1;PMS_P2;Temp;Humidity;BMP_temperature;BMP_pressure;BME280_temperature;BME280_humidity;BME280_pressure;Samples;Min_cycle;Max_cycle;Signal;HPM_P1;HPM_P2
2021/04/06 00:02:08;;;;;;;3.73;1.20;;;0.30;99.90;;;;;;5077613;28;20217;-58
2021/04/06 00:04:41;;;;;;;1.93;1.13;;;0.30;99.90;;;;;;5091801;28;20282;-57
2021/04/06 00:07:12;;;;;;;4.97;1.70;;;0.20;99.90;;;;;;5091925;28;20974;-58
2021/04/06 00:09:42;;;;;;;1.87;1.13;;;0.10;99.90;;;;;;5091843;28;20329;-56
2021/04/06 00:12:10;;;;;;;2.70;1.70;;;0.10;99.90;;;;;;5091764;28;20633;-57
2021/04/06 00:14:39;;;;;;;2.47;1.50;;;0.10;99.90;;;;;;5091636;28;20308;-56
2021/04/06 00:17:09;;;;;;;2.47;1.50;;;0.10;99.90;;;;;;5091871;28;20203;-57
2021/04/06 00:19:39;;;;;;;2.37;1.77;;;0.00;99.90;;;;;;5091541;28;20278;-57
2021/04/06 00:22:08;;;;;;;3.97;1.90;;;0.10;99.90;;;;;;5091563;28;20701;-58
2021/04/06 00:24:38;;;;;;;4.03;1.90;;;0.10;99.90;;;;;;5091216;28;20207;-56
2021/04/06 00:27:10;;;;;;;3.00;1.40;;;0.20;99.90;;;;;;5091428;28;20332;-57
2021/04/06 00:29:39;;;;;;;5.47;1.60;;;0.00;99.90;;;;;;5091538;28;20665;-57
2021/04/06 00:32:07;;;;;;;3.53;1.87;;;0.10;99.90;;;;;;5092719;28;20196;-58
2021/04/06 00:34:37;;;;;;;4.53;2.57;;;0.10;99.90;;;;;;5092537;28;20222;-57
2021/04/06 00:37:09;;;;;;;4.43;1.83;;;0.10;99.90;;;;;;5092674;28;20228;-57
2021/04/06 00:39:38;;;;;;;3.73;2.30;;;0.10;99.90;;;;;;5092154;28;20598;-57
2021/04/06 00:42:08;;;;;;;5.77;3.30;;;0.00;99.90;;;;;;5092752;28;20554;-56
2021/04/06 00:44:40;;;;;;;4.13;2.97;;;0.00;99.90;;;;;;5092378;28;20539;-57
2021/04/06 00:47:08;;;;;;;6.10;2.57;;;0.00;99.90;;;;;;5092556;28;20271;-57
2021/04/06 00:49:37;;;;;;;5.17;2.57;;;-0.10;99.90;;;;;;5092240;28;20295;-59
2021/04/06 00:52:06;;;;;;;6.17;2.63;;;-0.10;99.90;;;;;;5091799;28;20299;-57
2021/04/06 00:54:34;;;;;;;4.50;2.30;;;-0.20;99.90;;;;;;5087602;28;20228;-58
2021/04/06 00:57:03;;;;;;;4.57;2.80;;;-0.30;99.90;;;;;;5074719;28;20299;-58
2021/04/06 00:59:31;;;;;;;6.17;2.47;;;-0.30;99.90;;;;;;5086792;28;20237;-57
2021/04/06 01:02:00;;;;;;;3.87;2.47;;;-0.30;99.90;;;;;;5095951;28;20206;-58
2021/04/06 01:04:29;;;;;;;3.67;1.93;;;-0.20;99.90;;;;;;5090890;28;20637;-59
2021/04/06 01:07:01;;;;;;;3.83;2.30;;;-0.20;99.90;;;;;;5075505;28;20211;-58
2021/04/06 01:09:36;;;;;;;5.37;2.43;;;-0.20;99.90;;;;;;5080347;28;20228;-59
2021/04/06 01:12:05;;;;;;;2.50;1.57;;;-0.20;99.90;;;;;;5095777;28;20299;-59
2021/04/06 01:14:34;;;;;;;3.00;1.80;;;-0.20;99.90;;;;;;5084983;28;20229;-58
2021/04/06 01:17:03;;;;;;;1.93;1.70;;;-0.30;99.90;;;;;;5075235;28;20239;-58
2021/04/06 01:19:31;;;;;;;4.63;1.80;;;-0.20;99.90;;;;;;5075267;28;20205;-58
2021/04/06 01:22:00;;;;;;;3.07;1.40;;;-0.20;99.90;;;;;;5092074;28;20571;-55
2021/04/06 01:24:28;;;;;;;3.50;1.60;;;-0.10;99.90;;;;;;5095135;28;20203;-56
2021/04/06 01:26:56;;;;;;;4.77;2.60;;;-0.10;99.90;;;;;;5095222;28;20261;-57
2021/04/06 01:29:24;;;;;;;4.63;1.70;;;-0.20;99.90;;;;;;5095188;28;20227;-59
2021/04/06 01:31:51;;;;;;;3.90;1.60;;;-0.20;99.90;;;;;;5095473;28;20198;-57
2021/04/06 01:34:19;;;;;;;3.60;1.67;;;-0.10;99.90;;;;;;5095006;28;20696;-57
2021/04/06 01:36:47;;;;;;;11.10;1.93;;;-0.20;99.90;;;;;;5095397;28;20192;-57
2021/04/06 01:39:15;;;;;;;4.43;1.43;;;-0.10;99.90;;;;;;5095483;28;20559;-58
2021/04/06 01:41:46;;;;;;;3.77;1.83;;;-0.10;99.90;;;;;;5095245;28;20289;-58
2021/04/06 01:44:14;;;;;;;3.30;2.17;;;-0.10;99.90;;;;;;5077561;28;20831;-56
2021/04/06 01:46:43;;;;;;;3.33;1.80;;;-0.10;99.90;;;;;;5077881;28;20303;-56
2021/04/06 01:49:11;;;;;;;4.83;2.53;;;-0.10;99.90;;;;;;5076235;28;20626;-57
2021/04/06 01:51:38;;;;;;;5.13;2.27;;;-0.10;99.90;;;;;;5080900;28;20688;-57
2021/04/06 01:54:06;;;;;;;4.33;2.03;;;-0.20;99.90;;;;;;5089040;28;20223;-58
2021/04/06 01:56:40;;;;;;;5.43;2.07;;;-0.20;99.90;;;;;;5074652;28;20212;-57
2021/04/06 01:59:11;;;;;;;3.00;2.10;;;-0.10;99.90;;;;;;5074187;28;20277;-57
2021/04/06 02:01:40;;;;;;;5.13;2.40;;;-0.10;99.90;;;;;;5074504;28;20277;-58
2021/04/06 02:04:09;;;;;;;3.70;1.70;;;-0.10;99.90;;;;;;5083644;28;20219;-56
2021/04/06 02:06:38;;;;;;;3.13;1.87;;;0.00;99.90;;;;;;5094730;28;20203;-59
2021/04/06 02:09:09;;;;;;;3.17;2.03;;;-0.10;99.90;;;;;;5094589;28;20196;-56
2021/04/06 02:11:38;;;;;;;3.77;2.57;;;0.00;99.90;;;;;;5093490;28;20563;-57
2021/04/06 02:14:06;;;;;;;2.83;2.03;;;0.00;99.90;;;;;;5094316;28;20216;-57
2021/04/06 02:16:46;;;;;;;5.30;2.23;;;0.00;99.90;;;;;;5094685;28;20254;-58
2021/04/06 02:19:20;;;;;;;3.40;2.20;;;0.00;99.90;;;;;;5094292;28;20221;-56
2021/04/06 02:21:55;;;;;;;2.07;1.80;;;0.10;99.90;;;;;;5094636;28;20180;-55
2021/04/06 02:24:31;;;;;;;3.77;2.13;;;0.10;99.90;;;;;;5094269;28;20270;-56
2021/04/06 02:27:00;;;;;;;3.17;2.20;;;0.10;99.90;;;;;;5082520;28;20246;-57
2021/04/06 02:29:27;;;;;;;3.70;2.40;;;0.30;99.90;;;;;;5073471;28;20627;-59
2021/04/06 02:31:56;;;;;;;3.77;2.40;;;0.30;99.90;;;;;;5073997;28;20197;-57
2021/04/06 02:34:33;;;;;;;3.23;2.23;;;0.30;99.90;;;;;;5073988;28;20308;-56
2021/04/06 02:37:01;;;;;;;4.83;2.20;;;0.40;99.90;;;;;;5073800;28;20293;-58
2021/04/06 02:39:28;;;;;;;3.80;2.17;;;0.50;99.90;;;;;;5073347;28;20758;-64
2021/04/06 02:41:55;;;;;;;3.13;1.97;;;0.50;99.90;;;;;;5073965;28;20303;-63
2021/04/06 02:44:21;;;;;;;3.27;1.90;;;0.50;99.90;;;;;;5073632;28;20199;-63
2021/04/06 02:46:50;;;;;;;6.57;2.00;;;0.60;99.90;;;;;;5073636;28;20617;-64
2021/04/06 02:49:19;;;;;;;2.43;2.20;;;0.70;99.90;;;;;;5073688;28;20208;-62
2021/04/06 02:52:03;;;;;;;5.80;2.10;;;0.70;99.90;;;;;;5073452;28;20184;-63
2021/04/06 02:54:30;;;;;;;3.50;2.23;;;0.70;99.90;;;;;;5073303;28;20351;-62
2021/04/06 02:56:57;;;;;;;3.87;2.10;;;0.70;99.90;;;;;;5073243;28;20291;-63
2021/04/06 02:59:24;;;;;;;4.93;2.30;;;0.70;99.90;;;;;;5073360;28;20235;-63
2021/04/06 03:01:58;;;;;;;4.73;2.30;;;0.60;99.90;;;;;;5073561;28;20229;-63
2021/04/06 03:04:27;;;;;;;3.87;2.50;;;0.70;99.90;;;;;;5073563;28;20272;-63
2021/04/06 03:06:56;;;;;;;6.73;2.67;;;0.70;99.90;;;;;;5073467;28;20214;-63
2021/04/06 03:09:24;;;;;;;4.47;2.80;;;0.70;99.90;;;;;;5073008;28;20678;-62
2021/04/06 03:11:52;;;;;;;4.23;2.60;;;0.70;99.90;;;;;;5082772;28;20236;-62
2021/04/06 03:14:20;;;;;;;6.23;3.00;;;0.70;99.90;;;;;;5092432;28;20213;-64
2021/04/06 03:16:49;;;;;;;4.43;2.53;;;0.70;99.90;;;;;;5073200;28;20285;-62
2021/04/06 03:19:16;;;;;;;5.40;3.07;;;0.70;99.90;;;;;;5073163;28;20197;-63
2021/04/06 03:21:48;;;;;;;3.90;3.00;;;0.80;99.90;;;;;;5072837;28;20193;-63
2021/04/06 03:24:17;;;;;;;5.40;3.27;;;0.70;99.90;;;;;;5072473;28;20258;-64
2021/04/06 03:26:47;;;;;;;3.70;3.00;;;0.80;99.90;;;;;;5072501;28;20232;-64
2021/04/06 03:29:16;;;;;;;5.33;3.33;;;0.80;99.90;;;;;;5072812;28;20274;-63
2021/04/06 03:31:43;;;;;;;5.87;3.07;;;0.90;99.90;;;;;;5072804;28;20821;-63
2021/04/06 03:34:10;;;;;;;6.30;3.50;;;0.90;99.90;;;;;;5072625;28;20227;-63
2021/04/06 03:36:37;;;;;;;3.80;3.33;;;0.90;99.90;;;;;;5085841;28;20204;-63
2021/04/06 03:39:07;;;;;;;4.37;3.13;;;0.90;99.90;;;;;;5092518;28;20287;-62
2021/04/06 03:41:34;;;;;;;7.30;3.30;;;0.80;99.90;;;;;;5093137;28;20242;-64
2021/04/06 03:44:06;;;;;;;7.40;3.20;;;0.70;99.90;;;;;;5092483;28;20666;-63
2021/04/06 03:46:35;;;;;;;4.83;2.90;;;0.80;99.90;;;;;;5093133;28;20300;-63
2021/04/06 03:49:16;;;;;;;6.40;3.60;;;0.90;99.90;;;;;;5093243;28;20239;-63
2021/04/06 03:51:48;;;;;;;4.27;2.87;;;0.80;99.90;;;;;;5093091;28;20282;-62
2021/04/06 03:54:30;;;;;;;4.80;2.93;;;0.70;99.90;;;;;;5092687;28;20765;-63
2021/04/06 03:56:57;;;;;;;4.40;3.07;;;0.70;99.90;;;;;;5093031;28;20286;-63
2021/04/06 03:59:27;;;;;;;4.03;2.90;;;0.80;99.90;;;;;;5092671;28;20600;-63
2021/04/06 04:01:54;;;;;;;4.87;3.10;;;0.80;99.90;;;;;;5092684;28;20280;-62
2021/04/06 04:04:21;;;;;;;9.47;4.13;;;0.80;99.90;;;;;;5092844;28;20202;-63
2021/04/06 04:06:48;;;;;;;5.10;3.30;;;0.80;99.90;;;;;;5092638;28;20652;-63
2021/04/06 04:09:15;;;;;;;6.23;3.10;;;0.80;99.90;;;;;;5092252;28;20203;-63
2021/04/06 04:11:42;;;;;;;4.13;3.20;;;0.80;99.90;;;;;;5092445;28;20284;-63
2021/04/06 04:14:09;;;;;;;4.57;2.73;;;0.70;99.90;;;;;;5092425;28;20222;-63
2021/04/06 04:16:38;;;;;;;7.17;3.90;;;0.70;99.90;;;;;;5092844;28;20199;-62
2021/04/06 04:19:05;;;;;;;6.87;3.37;;;0.70;99.90;;;;;;5092752;28;20210;-63
2021/04/06 04:21:32;;;;;;;7.40;3.47;;;0.70;99.90;;;;;;5092257;28;20206;-63
2021/04/06 04:23:58;;;;;;;6.33;3.60;;;0.70;99.90;;;;;;5092317;28;20294;-63
2021/04/06 04:26:25;;;;;;;7.23;3.67;;;0.60;99.90;;;;;;5092364;28;20231;-63
2021/04/06 04:28:53;;;;;;;6.20;3.40;;;0.50;99.90;;;;;;5092495;28;20241;-63
2021/04/06 04:31:20;;;;;;;6.60;3.77;;;0.50;99.90;;;;;;5092799;28;20282;-63
2021/04/06 04:33:47;;;;;;;5.83;3.57;;;0.50;99.90;;;;;;5092828;28;20221;-63
2021/04/06 04:36:14;;;;;;;5.23;3.70;;;0.50;99.90;;;;;;5096380;28;20236;-62
2021/04/06 04:38:40;;;;;;;4.50;3.37;;;0.50;99.90;;;;;;5096347;28;20297;-63
2021/04/06 04:41:07;;;;;;;4.87;3.60;;;0.50;99.90;;;;;;5096606;28;20231;-63
2021/04/06 04:43:34;;;;;;;5.23;3.60;;;0.50;99.90;;;;;;5096071;28;20274;-64
2021/04/06 04:46:02;;;;;;;4.30;3.83;;;0.50;99.90;;;;;;5096151;28;20210;-63
2021/04/06 04:48:29;;;;;;;4.87;3.50;;;0.50;99.90;;;;;;5096137;28;20198;-63
2021/04/06 04:50:56;;;;;;;6.40;3.77;;;0.50;99.90;;;;;;5096346;28;20563;-63
2021/04/06 04:53:23;;;;;;;7.10;4.37;;;0.50;99.90;;;;;;5095873;28;20290;-63
2021/04/06 04:55:50;;;;;;;6.67;4.70;;;0.60;99.90;;;;;;5096184;28;20652;-63
2021/04/06 04:58:17;;;;;;;7.27;3.80;;;0.60;99.90;;;;;;5095615;28;20199;-62
2021/04/06 05:00:43;;;;;;;7.53;4.77;;;0.60;99.90;;;;;;5095905;28;20266;-63
2021/04/06 05:03:12;;;;;;;7.37;5.37;;;0.60;99.90;;;;;;5095732;28;20209;-62
2021/04/06 05:05:39;;;;;;;7.20;4.40;;;0.70;99.90;;;;;;5095987;28;20203;-64
2021/04/06 05:08:06;;;;;;;8.77;5.70;;;0.70;99.90;;;;;;5095519;28;20200;-64
2021/04/06 05:10:33;;;;;;;8.00;5.30;;;0.70;99.90;;;;;;5096045;28;20302;-56
2021/04/06 05:13:00;;;;;;;8.57;5.97;;;0.80;99.90;;;;;;5096028;28;20204;-59
2021/04/06 05:15:30;;;;;;;6.47;4.27;;;0.80;99.90;;;;;;5095587;28;20252;-58
2021/04/06 05:17:57;;;;;;;7.40;4.30;;;0.80;99.90;;;;;;5095527;28;20199;-57
2021/04/06 05:20:24;;;;;;;7.13;4.53;;;0.80;99.90;;;;;;5089906;28;20208;-56
2021/04/06 05:22:52;;;;;;;7.90;4.47;;;0.80;99.90;;;;;;5077398;28;20209;-57
2021/04/06 05:25:19;;;;;;;7.23;4.50;;;0.90;99.90;;;;;;5082758;28;20222;-57
2021/04/06 05:27:46;;;;;;;7.17;4.77;;;0.90;99.90;;;;;;5087910;28;20310;-58
2021/04/06 05:30:13;;;;;;;7.20;4.80;;;1.00;99.90;;;;;;5094856;28;20206;-57
2021/04/06 05:32:40;;;;;;;7.77;5.27;;;1.00;99.90;;;;;;5095316;28;20200;-56
2021/04/06 05:35:08;;;;;;;7.60;5.33;;;1.00;99.90;;;;;;5089247;28;20326;-59
2021/04/06 05:37:35;;;;;;;5.63;4.80;;;0.90;99.90;;;;;;5083237;28;20295;-57
2021/04/06 05:40:04;;;;;;;6.43;4.80;;;0.90;99.90;;;;;;5074775;28;20253;-57
2021/04/06 05:42:31;;;;;;;7.83;4.87;;;1.00;99.90;;;;;;5074574;28;20292;-55
2021/04/06 05:44:59;;;;;;;6.73;4.07;;;1.00;99.90;;;;;;5074326;28;20288;-59
2021/04/06 05:47:30;;;;;;;6.43;4.37;;;1.00;99.90;;;;;;5074686;28;20277;-57
2021/04/06 05:49:57;;;;;;;11.83;5.70;;;1.00;99.90;;;;;;5074552;28;20232;-59
2021/04/06 05:52:24;;;;;;;6.73;5.43;;;1.00;99.90;;;;;;5074532;28;20242;-58
2021/04/06 05:54:52;;;;;;;8.63;5.63;;;1.00;99.90;;;;;;5080530;28;20208;-57
2021/04/06 05:57:19;;;;;;;8.53;6.13;;;1.00;99.90;;;;;;5089529;28;20212;-56
2021/04/06 05:59:46;;;;;;;9.87;5.67;;;1.00;99.90;;;;;;5086621;28;20207;-56
2021/04/06 06:02:13;;;;;;;6.70;5.13;;;1.00;99.90;;;;;;5094820;28;20401;-56
2021/04/06 06:04:40;;;;;;;8.07;5.53;;;1.00;99.90;;;;;;5094712;28;20304;-56
2021/04/06 06:07:07;;;;;;;8.00;5.67;;;1.10;99.90;;;;;;5094394;28;20301;-56
2021/04/06 06:09:35;;;;;;;8.37;5.70;;;1.20;99.90;;;;;;5094205;28;20696;-57
2021/04/06 06:12:06;;;;;;;9.50;5.47;;;1.30;99.90;;;;;;5095729;28;20196;-55
2021/04/06 06:14:35;;;;;;;7.50;5.60;;;1.20;99.90;;;;;;5099218;28;20236;-52
2021/04/06 06:17:16;;;;;;;9.33;5.80;;;1.40;99.90;;;;;;5095820;28;20209;-54
2021/04/06 06:19:44;;;;;;;8.63;5.80;;;1.50;99.90;;;;;;5095758;28;20210;-57
2021/04/06 06:22:13;;;;;;;8.83;5.83;;;1.50;99.90;;;;;;5094935;28;20292;-58
2021/04/06 06:24:43;;;;;;;8.90;5.80;;;1.60;99.90;;;;;;5093838;28;20269;-58
2021/04/06 06:27:34;;;;;;;10.47;6.23;;;1.60;99.90;;;;;;5093886;28;20324;-56
2021/04/06 06:30:26;;;;;;;8.50;5.73;;;1.60;99.90;;;;;;5092655;28;20229;-57
2021/04/06 06:33:13;;;;;;;9.67;6.57;;;1.50;99.90;;;;;;5091427;28;20181;-60
2021/04/06 06:35:42;;;;;;;9.57;6.30;;;1.50;99.90;;;;;;5092360;28;20217;-57
2021/04/06 06:38:16;;;;;;;8.27;6.27;;;1.50;99.90;;;;;;5088629;28;20205;-57
2021/04/06 06:40:44;;;;;;;7.37;5.40;;;1.50;99.90;;;;;;5088766;28;20187;-59
2021/04/06 06:43:13;;;;;;;7.77;5.37;;;1.70;99.90;;;;;;5085521;28;20211;-56
2021/04/06 06:45:41;;;;;;;6.70;5.30;;;1.70;99.90;;;;;;5087372;28;20201;-55
2021/04/06 06:48:10;;;;;;;9.37;7.37;;;1.80;99.90;;;;;;5089750;28;20199;-52
2021/04/06 06:50:47;;;;;;;9.00;5.60;;;1.90;99.90;;;;;;5090471;28;20656;-51
2021/04/06 06:53:29;;;;;;;8.40;5.73;;;1.80;99.90;;;;;;5090127;28;20261;-54
2021/04/06 06:55:56;;;;;;;6.30;5.00;;;1.80;99.90;;;;;;5090460;28;20675;-55
2021/04/06 06:58:30;;;;;;;6.70;5.30;;;1.90;99.90;;;;;;5074911;28;20802;-54
2021/04/06 07:00:58;;;;;;;7.20;4.77;;;2.00;99.90;;;;;;5070108;28;20658;-53
2021/04/06 07:03:26;;;;;;;5.73;4.67;;;2.00;99.90;;;;;;5070288;28;20207;-59
2021/04/06 07:05:53;;;;;;;6.77;4.90;;;2.10;99.90;;;;;;5069940;28;20288;-59
2021/04/06 07:08:30;;;;;;;8.97;5.30;;;2.50;99.90;;;;;;5070254;28;20201;-59
2021/04/06 07:11:00;;;;;;;7.17;4.70;;;2.90;99.90;;;;;;5070164;28;20207;-59
2021/04/06 07:13:31;;;;;;;7.03;4.97;;;3.20;99.90;;;;;;5069771;28;20200;-59
2021/04/06 07:15:59;;;;;;;5.07;4.20;;;3.30;99.90;;;;;;5090108;28;20223;-57
2021/04/06 07:18:28;;;;;;;7.97;4.73;;;3.20;99.90;;;;;;5090176;28;20290;-59
2021/04/06 07:21:01;;;;;;;7.07;4.47;;;3.30;99.90;;;;;;5090001;28;20218;-60
2021/04/06 07:23:35;;;;;;;6.83;4.23;;;3.40;99.90;;;;;;5087613;28;20301;-60
2021/04/06 07:26:07;;;;;;;7.63;4.27;;;3.50;99.90;;;;;;5075736;28;20232;-59
2021/04/06 07:28:35;;;;;;;6.67;3.93;;;3.50;99.90;;;;;;5076486;28;20295;-60
2021/04/06 07:31:05;;;;;;;5.50;3.27;;;3.50;99.90;;;;;;5089540;28;20217;-60
2021/04/06 07:33:33;;;;;;;5.57;3.27;;;3.60;99.90;;;;;;5089554;28;20304;-61
2021/04/06 07:36:04;;;;;;;5.93;3.80;;;3.80;99.90;;;;;;5069678;28;20221;-60
2021/04/06 07:38:35;;;;;;;5.57;3.43;;;3.90;99.90;;;;;;5069837;28;20639;-58
2021/04/06 07:41:04;;;;;;;4.77;2.63;;;4.00;99.90;;;;;;5069577;28;20583;-59
2021/04/06 07:43:31;;;;;;;4.50;2.90;;;4.10;99.90;;;;;;5069320;28;20232;-58
2021/04/06 07:45:58;;;;;;;6.33;3.27;;;4.00;99.90;;;;;;5069526;28;20290;-57
2021/04/06 07:48:44;;;;;;;5.07;2.70;;;4.00;99.90;;;;;;5069565;28;20788;-58
2021/04/06 07:51:16;;;;;;;6.53;3.20;;;4.10;99.90;;;;;;5069318;28;20723;-58
2021/04/06 07:53:59;;;;;;;6.40;3.80;;;4.10;99.90;;;;;;5069268;28;20232;-60
2021/04/06 07:56:49;;;;;;;4.10;2.40;;;4.20;99.90;;;;;;5069425;28;20263;-55
2021/04/06 07:59:38;;;;;;;4.23;2.23;;;4.30;99.90;;;;;;5069022;28;20377;-55
2021/04/06 08:02:25;;;;;;;4.40;2.30;;;4.50;99.90;;;;;;5069004;28;20283;-57
2021/04/06 08:04:55;;;;;;;3.93;2.50;;;4.50;99.90;;;;;;5068989;28;20283;-59
2021/04/06 08:07:24;;;;;;;6.87;2.40;;;4.60;99.90;;;;;;5069524;28;20204;-59
2021/04/06 08:09:51;;;;;;;3.80;2.90;;;4.70;99.90;;;;;;5071536;28;20213;-56
2021/04/06 08:12:19;;;;;;;3.13;2.17;;;4.90;99.90;;;;;;5073216;28;20569;-56
2021/04/06 08:14:48;;;;;;;2.77;2.10;;;5.00;99.90;;;;;;5072986;28;20319;-55
2021/04/06 08:17:38;;;;;;;3.43;2.93;;;5.00;99.90;;;;;;5073323;28;20200;-57
2021/04/06 08:20:08;;;;;;;3.33;2.47;;;4.90;99.90;;;;;;5072914;28;20664;-59
2021/04/06 08:22:46;;;;;;;6.10;2.50;;;4.90;99.90;;;;;;5072912;28;20290;-59
2021/04/06 08:25:38;;;;;;;3.40;2.53;;;4.90;99.90;;;;;;5072766;28;20662;-55
2021/04/06 08:28:24;;;;;;;2.60;1.90;;;5.00;99.90;;;;;;5072856;28;20667;-57
2021/04/06 08:31:14;;;;;;;2.10;1.90;;;5.00;99.90;;;;;;5072773;28;20184;-61
2021/04/06 08:33:40;;;;;;;2.73;2.10;;;5.10;99.90;;;;;;5073245;28;20194;-62
2021/04/06 08:36:10;;;;;;;3.37;1.60;;;5.50;99.90;;;;;;5073037;28;20228;-60
2021/04/06 08:38:46;;;;;;;3.53;1.40;;;5.70;99.90;;;;;;5072446;28;20236;-60
2021/04/06 08:41:31;;;;;;;3.17;1.50;;;5.80;99.90;;;;;;5072398;28;20215;-59
2021/04/06 08:43:59;;;;;;;2.60;1.50;;;6.00;99.90;;;;;;5072553;28;20183;-60
2021/04/06 08:46:40;;;;;;;4.37;1.73;;;6.00;99.90;;;;;;5072683;28;20200;-61
2021/04/06 08:49:11;;;;;;;8.10;2.00;;;5.90;99.90;;;;;;5072653;28;20185;-59
2021/04/06 08:51:42;;;;;;;3.37;1.90;;;5.90;99.90;;;;;;5072226;28;20641;-60
2021/04/06 08:54:12;;;;;;;3.97;1.80;;;5.90;99.90;;;;;;5072636;28;20213;-60
2021/04/06 08:56:40;;;;;;;1.80;1.30;;;5.90;99.90;;;;;;5072177;28;20210;-57
2021/04/06 08:59:12;;;;;;;2.23;1.30;;;6.00;99.90;;;;;;5071943;28;20237;-56
2021/04/06 09:01:39;;;;;;;5.47;1.60;;;6.00;99.90;;;;;;5072344;28;20669;-59
2021/04/06 09:04:11;;;;;;;4.20;1.80;;;6.20;99.90;;;;;;5090355;28;20284;-57
2021/04/06 09:06:39;;;;;;;2.53;1.30;;;6.40;99.90;;;;;;5088995;28;20680;-58
2021/04/06 09:09:06;;;;;;;2.87;1.37;;;6.40;99.90;;;;;;5091476;28;20319;-58
2021/04/06 09:11:33;;;;;;;3.10;1.40;;;6.40;99.90;;;;;;5089183;28;20283;-56
2021/04/06 09:14:00;;;;;;;3.97;1.60;;;6.30;99.90;;;;;;5091426;28;20212;-55
2021/04/06 09:16:29;;;;;;;2.13;1.40;;;6.10;99.90;;;;;;5092174;28;20203;-56
2021/04/06 09:18:58;;;;;;;5.03;1.80;;;5.90;99.90;;;;;;5091791;28;20850;-59
2021/04/06 09:21:27;;;;;;;2.07;1.40;;;5.60;99.90;;;;;;5091564;28;20622;-59
2021/04/06 09:23:57;;;;;;;3.80;1.60;;;5.20;99.90;;;;;;5091987;28;20204;-62
2021/04/06 09:26:24;;;;;;;2.47;1.70;;;4.90;99.90;;;;;;5091970;28;20296;-59
2021/04/06 09:29:01;;;;;;;3.00;1.70;;;4.80;99.90;;;;;;5091749;28;20201;-59
2021/04/06 09:31:29;;;;;;;2.20;1.57;;;4.70;99.90;;;;;;5091895;28;20188;-58
2021/04/06 09:34:08;;;;;;;6.40;2.50;;;4.50;99.90;;;;;;5092026;28;20212;-57
2021/04/06 09:36:36;;;;;;;4.37;2.53;;;4.00;99.90;;;;;;5092266;28;20192;-52
2021/04/06 09:39:06;;;;;;;3.90;2.60;;;3.60;99.90;;;;;;5091897;28;20294;-58
2021/04/06 09:41:35;;;;;;;4.53;2.17;;;3.20;99.90;;;;;;5091807;28;20701;-59
2021/04/06 09:44:03;;;;;;;3.07;2.60;;;3.20;99.90;;;;;;5091597;28;20553;-58
2021/04/06 09:46:39;;;;;;;5.50;2.60;;;3.10;99.90;;;;;;5092037;28;20501;-59
2021/04/06 09:49:07;;;;;;;3.17;2.50;;;3.10;99.90;;;;;;5092460;28;20253;-57
2021/04/06 09:51:47;;;;;;;4.27;2.43;;;3.40;99.90;;;;;;5092066;28;20227;-58
2021/04/06 09:54:21;;;;;;;5.27;2.10;;;3.70;99.90;;;;;;5091479;28;20609;-58
2021/04/06 09:56:48;;;;;;;4.63;2.40;;;4.00;99.90;;;;;;5091703;28;20211;-57
2021/04/06 09:59:17;;;;;;;3.13;2.13;;;4.30;99.90;;;;;;5091392;28;20260;-56
2021/04/06 10:01:50;;;;;;;3.40;2.10;;;4.50;99.90;;;;;;5091633;28;20198;-55
2021/04/06 10:04:31;;;;;;;6.57;2.10;;;4.50;99.90;;;;;;5091221;28;20276;-56
2021/04/06 10:07:07;;;;;;;4.57;2.63;;;4.70;99.90;;;;;;5091186;28;20278;-61
2021/04/06 10:09:36;;;;;;;4.40;2.07;;;4.90;99.90;;;;;;5091610;28;20209;-55
2021/04/06 10:12:03;;;;;;;4.97;2.43;;;5.10;99.90;;;;;;5084938;28;20296;-57
2021/04/06 10:14:30;;;;;;;3.30;2.10;;;5.40;99.90;;;;;;5089693;28;20639;-57
2021/04/06 10:16:59;;;;;;;3.47;2.10;;;5.30;99.90;;;;;;5080104;28;20199;-60
2021/04/06 10:19:29;;;;;;;3.97;2.70;;;5.10;99.90;;;;;;5080580;28;20276;-57
2021/04/06 10:22:06;;;;;;;4.80;3.03;;;4.90;99.90;;;;;;5088376;28;20213;-54
2021/04/06 10:24:36;;;;;;;6.13;2.27;;;4.80;99.90;;;;;;5091193;28;20587;-53
2021/04/06 10:27:09;;;;;;;7.27;4.00;;;4.90;99.90;;;;;;5085032;28;20767;-56
2021/04/06 10:29:37;;;;;;;2.90;1.83;;;5.00;99.90;;;;;;5073993;28;20219;-57
2021/04/06 10:32:04;;;;;;;2.50;1.80;;;5.10;99.90;;;;;;5080848;28;20229;-54
2021/04/06 10:34:32;;;;;;;4.47;2.13;;;5.10;99.90;;;;;;5084805;28;20757;-56
2021/04/06 10:37:01;;;;;;;3.90;2.17;;;5.00;99.90;;;;;;5074343;28;20293;-55
2021/04/06 10:39:37;;;;;;;4.37;2.60;;;4.90;99.90;;;;;;5074018;28;20224;-57
2021/04/06 10:42:06;;;;;;;4.23;2.57;;;4.90;99.90;;;;;;5085505;28;20283;-56
2021/04/06 10:44:34;;;;;;;5.47;2.27;;;4.90;99.90;;;;;;5073134;28;20323;-55
2021/04/06 10:47:01;;;;;;;3.37;2.20;;;5.00;99.90;;;;;;5089217;28;20209;-58
2021/04/06 10:49:28;;;;;;;5.57;2.43;;;5.10;99.90;;;;;;5085537;28;20287;-59
2021/04/06 10:51:59;;;;;;;4.67;2.13;;;5.30;99.90;;;;;;5082180;28;20291;-57
2021/04/06 10:54:26;;;;;;;3.03;2.17;;;5.40;99.90;;;;;;5086864;28;20241;-56
2021/04/06 10:56:55;;;;;;;4.10;2.23;;;5.50;99.90;;;;;;5073514;28;20241;-57
2021/04/06 10:59:42;;;;;;;4.30;2.80;;;5.70;99.90;;;;;;5072913;28;20200;-55
2021/04/06 11:02:09;;;;;;;3.17;2.03;;;5.70;99.90;;;;;;5073201;28;20202;-58
2021/04/06 11:04:39;;;;;;;2.53;1.80;;;5.60;99.90;;;;;;5073419;28;20281;-57
2021/04/06 11:07:09;;;;;;;3.70;1.70;;;5.50;99.90;;;;;;5073393;28;20205;-56
2021/04/06 11:09:40;;;;;;;4.50;2.03;;;5.60;99.90;;;;;;5075569;28;20190;-58
2021/04/06 11:12:09;;;;;;;6.53;1.70;;;5.70;99.90;;;;;;5082280;28;20221;-60
2021/04/06 11:14:37;;;;;;;4.90;1.70;;;6.00;99.90;;;;;;5072977;28;20290;-58
2021/04/06 11:17:05;;;;;;;3.70;1.63;;;6.20;99.90;;;;;;5073007;28;20289;-58
2021/04/06 11:19:34;;;;;;;2.67;1.50;;;6.40;99.90;;;;;;5084285;28;20214;-57
2021/04/06 11:22:02;;;;;;;3.13;1.80;;;6.50;99.90;;;;;;5072855;28;20260;-58
2021/04/06 11:24:32;;;;;;;4.97;1.93;;;6.80;99.90;;;;;;5079467;28;20245;-56
2021/04/06 11:27:01;;;;;;;3.60;1.50;;;6.80;99.90;;;;;;5080471;28;20763;-56
2021/04/06 11:29:31;;;;;;;6.23;2.83;;;6.50;99.90;;;;;;5082690;28;20213;-56
2021/04/06 11:31:59;;;;;;;5.30;3.10;;;5.90;99.90;;;;;;5076294;28;20605;-56
2021/04/06 11:34:28;;;;;;;2.20;1.80;;;5.20;99.90;;;;;;5079562;28;20285;-56
2021/04/06 11:36:55;;;;;;;4.13;2.10;;;4.70;99.90;;;;;;5079271;28;20291;-55
2021/04/06 11:39:26;;;;;;;4.90;2.87;;;4.40;99.90;;;;;;5080795;28;20205;-56
2021/04/06 11:41:53;;;;;;;3.00;2.60;;;4.00;99.90;;;;;;5072914;28;20283;-55
2021/04/06 11:44:20;;;;;;;3.80;3.00;;;3.80;99.90;;;;;;5072283;28;20228;-57
2021/04/06 11:46:48;;;;;;;5.30;3.13;;;3.70;99.90;;;;;;5073550;28;20304;-57
2021/04/06 11:49:17;;;;;;;4.23;2.03;;;3.80;99.90;;;;;;5081013;28;20302;-56
2021/04/06 11:51:45;;;;;;;4.47;1.60;;;4.00;99.90;;;;;;5083406;28;20293;-56
2021/04/06 11:54:14;;;;;;;3.30;1.40;;;4.40;99.90;;;;;;5090292;28;20297;-56
2021/04/06 11:56:41;;;;;;;2.47;1.40;;;4.90;99.90;;;;;;5092890;28;20223;-56
2021/04/06 11:59:08;;;;;;;3.30;1.40;;;5.40;99.90;;;;;;5092757;28;20204;-54
2021/04/06 12:01:36;;;;;;;3.53;1.40;;;5.50;99.90;;;;;;5087918;28;20287;-56
2021/04/06 12:04:05;;;;;;;2.07;1.30;;;5.20;99.90;;;;;;5084147;28;20208;-57
2021/04/06 12:06:32;;;;;;;1.77;0.93;;;4.80;99.90;;;;;;5092118;28;20188;-55
2021/04/06 12:08:59;;;;;;;2.60;0.90;;;4.50;99.90;;;;;;5092912;28;20288;-57
2021/04/06 12:11:27;;;;;;;1.30;0.73;;;4.10;99.90;;;;;;5092758;28;20204;-53
2021/04/06 12:13:54;;;;;;;0.93;0.73;;;3.80;99.90;;;;;;5092493;28;20248;-55
2021/04/06 12:16:21;;;;;;;2.30;1.00;;;3.40;99.90;;;;;;5092201;28;20708;-53
2021/04/06 12:18:47;;;;;;;1.70;0.90;;;3.30;99.90;;;;;;5092741;28;20300;-58
2021/04/06 12:21:15;;;;;;;0.93;0.90;;;3.30;99.90;;;;;;5092737;28;20540;-56
2021/04/06 12:23:43;;;;;;;1.13;0.80;;;3.50;99.90;;;;;;5092045;28;20212;-57
2021/04/06 12:26:10;;;;;;;1.63;0.97;;;3.90;99.90;;;;;;5092331;28;20257;-55
2021/04/06 12:28:37;;;;;;;2.17;0.83;;;4.40;99.90;;;;;;5092464;28;20206;-57
2021/04/06 12:31:05;;;;;;;1.97;1.13;;;5.00;99.90;;;;;;5092435;28;20274;-54
2021/04/06 12:33:32;;;;;;;2.30;0.83;;;5.70;99.90;;;;;;5092490;28;20198;-56
2021/04/06 12:35:59;;;;;;;3.13;1.23;;;6.10;99.90;;;;;;5092422;28;20334;-54
2021/04/06 12:38:27;;;;;;;1.73;1.00;;;6.60;99.90;;;;;;5092206;28;20220;-56
2021/04/06 12:40:54;;;;;;;2.03;1.07;;;7.10;99.90;;;;;;5092524;28;20199;-55
2021/04/06 12:43:22;;;;;;;4.10;1.03;;;7.40;99.90;;;;;;5092520;28;20288;-57
2021/04/06 12:45:49;;;;;;;3.10;1.40;;;7.50;99.90;;;;;;5091812;28;20286;-57
2021/04/06 12:48:16;;;;;;;2.67;1.60;;;7.50;99.90;;;;;;5092147;28;20214;-58
2021/04/06 12:50:43;;;;;;;6.27;1.83;;;7.10;99.90;;;;;;5092373;28;20210;-59
2021/04/06 12:53:10;;;;;;;3.33;1.93;;;6.50;99.90;;;;;;5092291;28;20294;-58
2021/04/06 12:55:38;;;;;;;3.63;1.70;;;5.90;99.90;;;;;;5093759;28;20223;-55
2021/04/06 12:58:05;;;;;;;4.63;2.00;;;5.30;99.90;;;;;;5096067;28;20289;-56
2021/04/06 13:00:32;;;;;;;3.63;2.00;;;4.90;99.90;;;;;;5095699;28;20197;-57
2021/04/06 13:02:59;;;;;;;4.37;2.03;;;4.60;99.90;;;;;;5096069;28;20245;-51
2021/04/06 13:05:25;;;;;;;3.63;1.70;;;4.40;99.90;;;;;;5095739;28;20297;-56
2021/04/06 13:07:52;;;;;;;6.00;2.33;;;4.30;99.90;;;;;;5095624;28;20205;-52
2021/04/06 13:10:21;;;;;;;4.23;2.60;;;4.50;99.90;;;;;;5095811;28;20590;-57